createdAt,value
2023-01-21T00:00:17.204Z,47.95
2023-01-21T00:01:48.966Z,47.22
2023-01-21T00:03:20.338Z,45.55
2023-01-21T00:04:51.839Z,46.91
2023-01-21T00:06:28.389Z,46.52
2023-01-21T00:08:02.459Z,51.35
2023-01-21T00:09:34.184Z,47.90
2023-01-21T00:11:05.670Z,47.72
2023-01-21T00:12:37.007Z,48.87
2023-01-21T00:14:08.317Z,49.18
2023-01-21T00:15:39.861Z,50.01
2023-01-21T00:17:11.241Z,51.49
2023-01-21T00:18:43.039Z,49.46
2023-01-21T00:20:14.492Z,47.36
2023-01-21T00:21:46.165Z,45.30
2023-01-21T00:23:18.005Z,48.87
2023-01-21T00:24:54.326Z,49.85
2023-01-21T00:26:25.945Z,49.75
2023-01-21T00:27:57.736Z,50.96
2023-01-21T00:29:29.599Z,49.50
2023-01-21T00:31:01.332Z,53.41
2023-01-21T00:32:33.016Z,51.36
2023-01-21T00:34:04.443Z,50.65
2023-01-21T00:35:36.166Z,55.19
2023-01-21T00:37:07.413Z,56.00
2023-01-21T00:38:39.289Z,54.52
2023-01-21T00:40:10.692Z,54.75
2023-01-21T00:41:42.045Z,55.79
2023-01-21T00:43:13.453Z,53.87
2023-01-21T00:44:45.028Z,53.14
2023-01-21T00:46:16.833Z,56.31
2023-01-21T00:47:48.258Z,54.91
2023-01-21T00:49:19.761Z,55.41
2023-01-21T00:50:51.596Z,56.06
2023-01-21T00:52:22.958Z,55.76
2023-01-21T00:53:54.402Z,54.55
2023-01-21T00:55:31.127Z,54.88
2023-01-21T00:57:02.550Z,56.49
2023-01-21T00:58:35.224Z,56.43
2023-01-21T01:00:06.916Z,53.85
2023-01-21T01:01:38.731Z,56.39
2023-01-21T01:03:10.554Z,53.06
2023-01-21T01:04:41.825Z,53.55
2023-01-21T01:06:13.106Z,54.57
2023-01-21T01:07:44.540Z,55.70
2023-01-21T01:09:16.330Z,57.86
2023-01-21T01:10:48.220Z,53.82
2023-01-21T01:12:19.866Z,52.59
2023-01-21T01:13:51.355Z,53.69
2023-01-21T01:15:23.667Z,55.67
2023-01-21T01:17:00.150Z,59.06
2023-01-21T01:18:31.865Z,53.77
2023-01-21T01:20:03.597Z,56.73
2023-01-21T01:21:35.236Z,55.75
2023-01-21T01:23:06.938Z,56.04
2023-01-21T01:24:38.309Z,58.90
2023-01-21T01:26:09.916Z,58.45
2023-01-21T01:27:41.435Z,58.34
2023-01-21T01:29:12.868Z,57.21
2023-01-21T01:30:44.543Z,56.97
2023-01-21T01:32:16.110Z,56.30
2023-01-21T01:33:47.663Z,55.45
2023-01-21T01:35:19.561Z,56.99
2023-01-21T01:36:52.345Z,52.89
2023-01-21T01:38:23.808Z,57.33
2023-01-21T01:39:55.371Z,56.09
2023-01-21T01:41:26.803Z,54.82
2023-01-21T01:42:58.733Z,54.72
2023-01-21T01:44:30.239Z,57.19
2023-01-21T01:46:02.043Z,56.72
2023-01-21T01:47:33.798Z,55.08
2023-01-21T01:49:05.491Z,58.03
2023-01-21T01:50:37.074Z,56.72
2023-01-21T01:52:08.730Z,61.66
2023-01-21T01:53:40.058Z,55.20
2023-01-21T01:55:11.539Z,60.82
2023-01-21T01:56:43.185Z,57.50
2023-01-21T01:58:14.735Z,59.12
2023-01-21T01:59:46.001Z,57.99
2023-01-21T02:01:17.603Z,60.32
2023-01-21T02:02:50.039Z,60.91
2023-01-21T02:04:21.556Z,58.38
2023-01-21T02:05:53.157Z,58.36
2023-01-21T02:07:24.690Z,57.47
2023-01-21T02:08:55.959Z,57.07
2023-01-21T02:10:27.523Z,59.42
2023-01-21T02:11:58.968Z,59.27
2023-01-21T02:13:30.319Z,58.80
2023-01-21T02:15:01.679Z,54.30
2023-01-21T02:16:33.065Z,56.04
2023-01-21T02:18:04.601Z,56.92
2023-01-21T02:19:36.091Z,57.90
2023-01-21T02:21:07.879Z,56.01
2023-01-21T02:22:39.406Z,57.49
2023-01-21T02:24:10.667Z,56.50
2023-01-21T02:25:42.148Z,57.69
2023-01-21T02:27:13.789Z,61.81
2023-01-21T02:28:45.053Z,60.77
2023-01-21T02:30:16.964Z,56.21
2023-01-21T02:31:48.563Z,57.86
2023-01-21T02:33:20.044Z,56.01
2023-01-21T02:34:52.300Z,55.79
2023-01-21T02:36:23.766Z,54.42
2023-01-21T02:37:56.432Z,55.74
2023-01-21T02:39:28.122Z,57.61
2023-01-21T02:40:59.393Z,56.71
2023-01-21T02:42:30.761Z,54.62
2023-01-21T02:44:02.117Z,54.04
2023-01-21T02:45:33.546Z,62.21
2023-01-21T02:47:04.809Z,54.89
2023-01-21T02:48:36.281Z,57.36
2023-01-21T02:50:08.060Z,54.18
2023-01-21T02:51:39.440Z,53.59
2023-01-21T02:53:11.198Z,55.19
2023-01-21T02:54:42.534Z,57.61
2023-01-21T02:56:13.915Z,55.15
2023-01-21T02:57:45.417Z,54.30
2023-01-21T02:59:16.872Z,57.71
2023-01-21T03:00:48.368Z,57.07
2023-01-21T03:02:20.211Z,58.58
2023-01-21T03:03:51.842Z,55.35
2023-01-21T03:05:23.415Z,55.49
2023-01-21T03:06:54.887Z,57.52
2023-01-21T03:08:26.408Z,56.51
2023-01-21T03:09:57.976Z,55.30
2023-01-21T03:11:29.279Z,56.95
2023-01-21T03:13:00.611Z,56.94
2023-01-21T03:14:32.019Z,53.03
2023-01-21T03:16:03.563Z,55.85
2023-01-21T03:17:35.035Z,56.18
2023-01-21T03:19:06.652Z,55.13
2023-01-21T03:20:38.173Z,56.67
2023-01-21T03:22:10.201Z,56.45
2023-01-21T03:23:41.597Z,55.79
2023-01-21T03:25:13.117Z,57.41
2023-01-21T03:26:44.391Z,57.94
2023-01-21T03:28:15.984Z,58.09
2023-01-21T03:29:47.651Z,55.34
2023-01-21T03:31:19.133Z,56.57
2023-01-21T03:32:50.749Z,57.80
2023-01-21T03:34:22.120Z,55.49
2023-01-21T03:35:53.674Z,54.25
2023-01-21T03:37:25.410Z,55.54
2023-01-21T03:38:56.916Z,57.33
2023-01-21T03:40:28.163Z,55.74
2023-01-21T03:41:59.428Z,55.80
2023-01-21T03:43:30.675Z,57.26
2023-01-21T03:45:02.266Z,55.29
2023-01-21T03:46:34.038Z,57.90
2023-01-21T03:48:05.419Z,56.21
2023-01-21T03:49:36.680Z,57.97
2023-01-21T03:51:08.101Z,58.25
2023-01-21T03:52:39.707Z,53.98
2023-01-21T03:54:11.481Z,54.30
2023-01-21T03:55:42.941Z,56.69
2023-01-21T03:57:14.303Z,55.85
2023-01-21T03:58:45.710Z,55.18
2023-01-21T04:00:17.578Z,54.37
2023-01-21T04:01:49.290Z,56.85
2023-01-21T04:03:20.618Z,56.88
2023-01-21T04:04:52.185Z,59.61
2023-01-21T04:06:23.435Z,58.37
2023-01-21T04:07:54.779Z,57.45
2023-01-21T04:09:26.064Z,56.09
2023-01-21T04:10:57.682Z,56.96
2023-01-21T04:12:29.086Z,58.13
2023-01-21T04:14:00.610Z,59.79
2023-01-21T04:15:31.969Z,57.72
2023-01-21T04:17:03.115Z,56.82
2023-01-21T04:18:34.499Z,59.33
2023-01-21T04:20:06.024Z,56.65
2023-01-21T04:21:37.849Z,53.84
2023-01-21T04:23:09.434Z,58.80
2023-01-21T04:24:41.034Z,58.71
2023-01-21T04:26:12.366Z,61.22
2023-01-21T04:27:43.818Z,57.71
2023-01-21T04:29:15.289Z,59.14
2023-01-21T04:30:46.679Z,60.58
2023-01-21T04:32:18.019Z,58.98
2023-01-21T04:33:49.377Z,60.27
2023-01-21T04:35:20.856Z,58.81
2023-01-21T04:36:52.209Z,61.49
2023-01-21T04:38:23.655Z,60.86
2023-01-21T04:39:55.223Z,56.22
2023-01-21T04:41:26.605Z,58.11
2023-01-21T04:42:58.860Z,57.62
2023-01-21T04:44:30.205Z,57.56
2023-01-21T04:46:01.646Z,57.76
2023-01-21T04:47:33.530Z,56.20
2023-01-21T04:49:04.965Z,56.55
2023-01-21T04:50:36.136Z,54.75
2023-01-21T04:52:07.685Z,55.89
2023-01-21T04:53:39.163Z,54.60
2023-01-21T04:55:10.454Z,53.69
2023-01-21T04:56:41.723Z,56.32
2023-01-21T04:58:13.189Z,49.58
2023-01-21T04:59:44.854Z,50.35
2023-01-21T05:01:16.427Z,53.08
2023-01-21T05:02:48.129Z,58.82
2023-01-21T05:04:19.845Z,58.50
2023-01-21T05:05:51.159Z,58.74
2023-01-21T05:07:22.654Z,58.90
2023-01-21T05:08:54.433Z,54.67
2023-01-21T05:10:25.889Z,58.51
2023-01-21T05:11:57.174Z,58.42
2023-01-21T05:13:28.538Z,54.71
2023-01-21T05:15:00.412Z,56.43
2023-01-21T05:16:32.099Z,58.07
2023-01-21T05:18:03.295Z,56.46
2023-01-21T05:19:34.783Z,51.92
2023-01-21T05:21:06.126Z,54.68
2023-01-21T05:22:37.543Z,53.54
2023-01-21T05:24:08.753Z,52.15
2023-01-21T05:25:40.262Z,50.81
2023-01-21T05:27:11.748Z,50.28
2023-01-21T05:28:43.093Z,50.45
2023-01-21T05:30:14.499Z,51.72
2023-01-21T05:31:46.285Z,55.54
2023-01-21T05:33:17.883Z,55.53
2023-01-21T05:34:49.055Z,54.10
2023-01-21T05:36:20.312Z,57.68
2023-01-21T05:37:51.901Z,56.62
2023-01-21T05:39:23.573Z,54.76
2023-01-21T05:40:55.280Z,53.54
2023-01-21T05:42:26.723Z,54.10
2023-01-21T05:43:58.294Z,57.66
2023-01-21T05:45:29.857Z,57.94
2023-01-21T05:47:01.020Z,56.92
2023-01-21T05:48:32.520Z,56.62
2023-01-21T05:50:03.865Z,57.08
2023-01-21T05:51:35.260Z,54.06
2023-01-21T05:53:06.629Z,54.83
2023-01-21T05:54:42.037Z,54.36
2023-01-21T05:56:17.887Z,54.61
2023-01-21T05:57:49.253Z,53.24
2023-01-21T05:59:20.557Z,51.71
2023-01-21T06:00:51.794Z,53.89
2023-01-21T06:02:23.145Z,53.28
2023-01-21T06:03:54.709Z,58.46
2023-01-21T06:05:26.195Z,55.74
2023-01-21T06:06:57.555Z,54.19
2023-01-21T06:08:28.803Z,50.49
2023-01-21T06:10:00.386Z,51.32
2023-01-21T06:11:31.870Z,51.99
2023-01-21T06:13:03.368Z,53.94
2023-01-21T06:14:34.744Z,52.95
2023-01-21T06:16:06.408Z,54.22
2023-01-21T06:17:37.757Z,52.76
2023-01-21T06:19:09.235Z,55.07
2023-01-21T06:20:40.805Z,57.25
2023-01-21T06:22:12.144Z,52.47
2023-01-21T06:23:43.643Z,54.75
2023-01-21T06:25:15.007Z,53.59
2023-01-21T06:26:46.667Z,53.82
2023-01-21T06:28:18.345Z,53.36
2023-01-21T06:29:49.835Z,52.54
2023-01-21T06:31:21.348Z,58.86
2023-01-21T06:32:52.942Z,55.18
2023-01-21T06:34:24.394Z,56.67
2023-01-21T06:35:56.088Z,59.44
2023-01-21T06:37:27.625Z,57.71
2023-01-21T06:38:59.524Z,55.52
2023-01-21T06:40:31.133Z,57.35
2023-01-21T06:42:02.732Z,55.28
2023-01-21T06:43:34.160Z,55.65
2023-01-21T06:45:05.793Z,56.17
2023-01-21T06:46:41.226Z,57.39
2023-01-21T06:48:15.151Z,56.52
2023-01-21T06:49:47.188Z,56.11
2023-01-21T06:51:18.787Z,55.71
2023-01-21T06:52:50.155Z,53.73
2023-01-21T06:54:21.548Z,53.76
2023-01-21T06:55:53.118Z,53.58
2023-01-21T06:57:24.461Z,55.45
2023-01-21T06:58:56.042Z,55.64
2023-01-21T07:00:27.405Z,52.87
2023-01-21T07:01:59.088Z,55.05
2023-01-21T07:03:30.639Z,51.73
2023-01-21T07:05:02.060Z,54.77
2023-01-21T07:06:33.393Z,55.44
2023-01-21T07:08:04.930Z,53.38
2023-01-21T07:09:36.428Z,52.50
2023-01-21T07:11:07.783Z,52.56
2023-01-21T07:12:39.617Z,51.60
2023-01-21T07:14:11.168Z,52.79
2023-01-21T07:15:42.755Z,54.42
2023-01-21T07:17:14.001Z,57.61
2023-01-21T07:18:45.246Z,53.58
2023-01-21T07:20:16.528Z,54.17
2023-01-21T07:21:47.867Z,55.43
2023-01-21T07:23:19.267Z,52.75
2023-01-21T07:24:50.575Z,57.45
2023-01-21T07:26:22.035Z,54.48
2023-01-21T07:27:53.390Z,56.22
2023-01-21T07:29:25.060Z,53.96
2023-01-21T07:30:58.304Z,56.66
2023-01-21T07:32:29.644Z,56.66
2023-01-21T07:34:00.906Z,56.29
2023-01-21T07:35:32.188Z,58.10
2023-01-21T07:37:03.486Z,55.34
2023-01-21T07:38:34.832Z,55.76
2023-01-21T07:40:06.262Z,59.04
2023-01-21T07:41:37.776Z,55.82
2023-01-21T07:43:09.164Z,57.50
2023-01-21T07:44:40.525Z,58.12
2023-01-21T07:46:12.067Z,56.87
2023-01-21T07:47:43.687Z,58.46
2023-01-21T07:49:15.033Z,57.73
2023-01-21T07:50:46.458Z,60.31
2023-01-21T07:52:17.892Z,58.28
2023-01-21T07:53:49.454Z,59.50
2023-01-21T07:55:20.932Z,59.35
2023-01-21T07:56:52.492Z,58.52
2023-01-21T07:58:23.714Z,57.96
2023-01-21T07:59:55.183Z,60.05
2023-01-21T08:01:26.681Z,57.15
2023-01-21T08:02:58.315Z,53.94
2023-01-21T08:04:29.791Z,59.80
2023-01-21T08:06:01.495Z,57.27
2023-01-21T08:07:32.772Z,56.85
2023-01-21T08:09:04.118Z,53.30
2023-01-21T08:10:35.548Z,54.19
2023-01-21T08:12:06.881Z,56.09
2023-01-21T08:13:38.293Z,57.14
2023-01-21T08:15:09.692Z,57.46
2023-01-21T08:16:41.178Z,57.18
2023-01-21T08:18:12.880Z,53.13
2023-01-21T08:19:44.224Z,51.12
2023-01-21T08:21:15.569Z,53.41
2023-01-21T08:22:46.849Z,53.21
2023-01-21T08:24:18.025Z,54.87
2023-01-21T08:25:49.608Z,51.21
2023-01-21T08:27:21.300Z,53.92
2023-01-21T08:28:52.775Z,52.74
2023-01-21T08:30:23.933Z,53.78
2023-01-21T08:31:55.460Z,55.96
2023-01-21T08:33:26.817Z,53.14
2023-01-21T08:34:58.458Z,50.95
2023-01-21T08:36:29.884Z,50.00
2023-01-21T08:38:01.239Z,50.99
2023-01-21T08:39:34.231Z,47.68
2023-01-21T08:41:07.197Z,50.52
2023-01-21T08:42:38.503Z,49.14
2023-01-21T08:44:09.820Z,46.67
2023-01-21T08:45:41.345Z,49.88
2023-01-21T08:47:12.840Z,52.00
2023-01-21T08:48:44.831Z,47.88
2023-01-21T08:50:16.204Z,48.71
2023-01-21T08:51:47.513Z,47.60
2023-01-21T08:53:18.936Z,48.64
2023-01-21T08:54:50.835Z,47.40
2023-01-21T08:56:22.363Z,46.79
2023-01-21T08:57:53.704Z,45.70
2023-01-21T08:59:25.473Z,43.18
2023-01-21T09:00:57.429Z,48.00
2023-01-21T09:02:28.808Z,47.35
2023-01-21T09:04:00.149Z,47.50
2023-01-21T09:05:31.679Z,48.35
2023-01-21T09:07:03.254Z,48.11
2023-01-21T09:08:34.434Z,47.58
2023-01-21T09:10:05.998Z,48.77
2023-01-21T09:11:37.301Z,48.07
2023-01-21T09:13:08.792Z,46.68
2023-01-21T09:14:40.542Z,45.63
2023-01-21T09:16:12.105Z,49.85
2023-01-21T09:17:43.758Z,46.94
2023-01-21T09:19:15.033Z,54.17
2023-01-21T09:20:46.699Z,50.81
2023-01-21T09:22:18.609Z,51.21
2023-01-21T09:23:50.527Z,53.97
2023-01-21T09:25:23.269Z,52.99
2023-01-21T09:26:54.550Z,53.21
2023-01-21T09:28:25.883Z,50.36
2023-01-21T09:29:57.215Z,51.19
2023-01-21T09:31:28.701Z,51.78
2023-01-21T09:33:00.368Z,53.18
2023-01-21T09:34:33.462Z,48.96
2023-01-21T09:36:07.122Z,49.62
2023-01-21T09:37:38.417Z,49.72
2023-01-21T09:39:10.018Z,48.73
2023-01-21T09:40:41.397Z,47.44
2023-01-21T09:42:12.794Z,46.62
2023-01-21T09:43:44.642Z,46.93
2023-01-21T09:45:16.793Z,48.76
2023-01-21T09:46:48.473Z,48.50
2023-01-21T09:48:19.753Z,46.67
2023-01-21T09:49:51.788Z,49.76
2023-01-21T09:51:23.125Z,49.51
2023-01-21T09:52:54.860Z,47.22
2023-01-21T09:54:26.197Z,44.21
2023-01-21T09:55:57.534Z,44.27
2023-01-21T09:57:29.018Z,45.61
2023-01-21T09:59:00.383Z,48.11
2023-01-21T10:00:31.689Z,48.02
2023-01-21T10:02:03.123Z,49.12
2023-01-21T10:03:34.421Z,47.50
2023-01-21T10:05:05.950Z,46.39
2023-01-21T10:06:37.462Z,46.35
2023-01-21T10:08:08.934Z,46.73
2023-01-21T10:09:40.385Z,45.68
2023-01-21T10:11:11.815Z,43.52
2023-01-21T10:12:43.275Z,46.33
2023-01-21T10:14:15.057Z,45.37
2023-01-21T10:15:47.151Z,44.14
2023-01-21T10:17:18.662Z,45.99
2023-01-21T10:18:50.241Z,45.19
2023-01-21T10:20:21.445Z,41.15
2023-01-21T10:21:52.713Z,44.89
2023-01-21T10:23:24.088Z,42.83
2023-01-21T10:24:55.584Z,44.02
2023-01-21T10:26:27.629Z,37.45
2023-01-21T10:27:59.009Z,45.47
2023-01-21T10:29:30.323Z,50.57
2023-01-21T10:31:02.119Z,48.86
2023-01-21T10:32:33.670Z,48.20
2023-01-21T10:34:05.271Z,48.11
2023-01-21T10:35:36.622Z,43.50
2023-01-21T10:37:07.953Z,45.56
2023-01-21T10:38:39.386Z,49.23
2023-01-21T10:40:10.831Z,46.89
2023-01-21T10:41:42.348Z,50.32
2023-01-21T10:43:13.733Z,51.00
2023-01-21T10:44:45.264Z,42.69
2023-01-21T10:46:16.628Z,46.76
2023-01-21T10:47:48.141Z,43.09
2023-01-21T10:49:19.434Z,46.32
2023-01-21T10:50:50.856Z,47.17
2023-01-21T10:52:22.222Z,52.70
2023-01-21T10:53:53.574Z,48.55
2023-01-21T10:55:24.939Z,49.13
2023-01-21T10:56:56.188Z,50.45
2023-01-21T10:58:27.396Z,50.02
2023-01-21T10:59:58.877Z,51.68
2023-01-21T11:01:35.188Z,54.13
2023-01-21T11:03:06.590Z,50.49
2023-01-21T11:04:43.200Z,50.88
2023-01-21T11:06:15.009Z,52.39
2023-01-21T11:07:46.721Z,49.23
2023-01-21T11:09:19.228Z,50.81
2023-01-21T11:10:53.231Z,51.99
2023-01-21T11:12:24.625Z,53.32
2023-01-21T11:13:56.041Z,54.99
2023-01-21T11:15:27.206Z,52.61
2023-01-21T11:16:58.817Z,48.41
2023-01-21T11:18:30.071Z,52.52
2023-01-21T11:20:01.409Z,49.79
2023-01-21T11:21:32.912Z,46.92
2023-01-21T11:23:04.730Z,48.13
2023-01-21T11:24:36.491Z,47.35
2023-01-21T11:26:10.279Z,51.15
2023-01-21T11:27:42.236Z,47.33
2023-01-21T11:29:13.542Z,50.27
2023-01-21T11:30:51.137Z,50.99
2023-01-21T11:32:23.065Z,45.56
2023-01-21T11:33:56.598Z,50.49
2023-01-21T11:35:33.640Z,52.24
2023-01-21T11:37:10.104Z,52.81
2023-01-21T11:38:41.533Z,50.00
2023-01-21T11:40:14.320Z,48.32
2023-01-21T11:41:45.645Z,48.46
2023-01-21T11:43:16.928Z,46.64
2023-01-21T11:44:48.358Z,51.22
2023-01-21T11:46:19.591Z,49.30
2023-01-21T11:47:50.970Z,51.56
2023-01-21T11:49:22.482Z,53.37
2023-01-21T11:50:53.910Z,53.34
2023-01-21T11:52:25.304Z,55.55
2023-01-21T11:53:56.809Z,53.58
2023-01-21T11:55:28.499Z,50.16
2023-01-21T11:56:59.779Z,50.50
2023-01-21T11:58:31.055Z,50.76
2023-01-21T12:00:02.405Z,54.54
2023-01-21T12:01:33.745Z,54.54
2023-01-21T12:03:05.012Z,52.92
2023-01-21T12:04:36.357Z,59.52
2023-01-21T12:06:07.919Z,55.50
2023-01-21T12:07:39.451Z,50.97
2023-01-21T12:09:11.237Z,56.39
2023-01-21T12:10:42.924Z,62.30
2023-01-21T12:12:14.331Z,64.46
2023-01-21T12:13:45.729Z,57.24
2023-01-21T12:15:17.221Z,59.03
2023-01-21T12:16:48.623Z,59.32
2023-01-21T12:18:21.126Z,55.28
2023-01-21T12:19:53.018Z,52.40
2023-01-21T12:21:24.318Z,51.80
2023-01-21T12:22:55.586Z,60.90
2023-01-21T12:24:27.001Z,64.78
2023-01-21T12:25:58.325Z,60.54
2023-01-21T12:27:29.699Z,58.46
2023-01-21T12:29:01.031Z,60.60
2023-01-21T12:30:32.702Z,58.80
2023-01-21T12:32:04.058Z,60.22
2023-01-21T12:33:35.689Z,58.97
2023-01-21T12:35:06.995Z,59.50
2023-01-21T12:36:38.231Z,59.30
2023-01-21T12:38:09.613Z,62.06
2023-01-21T12:39:40.815Z,57.76
2023-01-21T12:41:12.116Z,57.19
2023-01-21T12:42:43.845Z,55.26
2023-01-21T12:44:15.167Z,56.37
2023-01-21T12:45:46.765Z,52.21
2023-01-21T12:47:18.275Z,55.27
2023-01-21T12:48:49.550Z,55.08
2023-01-21T12:50:21.144Z,53.59
2023-01-21T12:51:52.507Z,52.98
2023-01-21T12:53:24.178Z,51.60
2023-01-21T12:54:55.561Z,51.83
2023-01-21T12:56:26.963Z,46.77
2023-01-21T12:57:58.818Z,51.60
2023-01-21T12:59:35.514Z,38.32
2023-01-21T13:01:06.910Z,52.63
2023-01-21T13:02:38.504Z,52.82
2023-01-21T13:04:09.877Z,53.59
2023-01-21T13:05:41.529Z,41.78
2023-01-21T13:07:12.664Z,39.16
2023-01-21T13:08:44.220Z,47.40
2023-01-21T13:10:15.709Z,49.01
2023-01-21T13:11:47.160Z,47.23
2023-01-21T13:13:18.628Z,46.11
2023-01-21T13:14:49.884Z,44.84
2023-01-21T13:16:21.411Z,46.59
2023-01-21T13:17:52.841Z,39.55
2023-01-21T13:19:25.883Z,35.46
2023-01-21T13:20:57.336Z,41.86
2023-01-21T13:22:28.857Z,41.43
2023-01-21T13:24:00.262Z,45.90
2023-01-21T13:25:32.043Z,48.16
2023-01-21T13:27:03.442Z,46.64
2023-01-21T13:28:34.754Z,48.67
2023-01-21T13:30:06.266Z,45.59
2023-01-21T13:31:37.592Z,47.02
2023-01-21T13:33:09.141Z,48.31
2023-01-21T13:34:40.727Z,47.79
2023-01-21T13:36:12.042Z,44.87
2023-01-21T13:37:43.572Z,44.08
2023-01-21T13:41:13.162Z,41.02
2023-01-21T13:42:44.920Z,42.95
2023-01-21T13:44:16.932Z,38.88
2023-01-21T13:45:49.307Z,36.36
2023-01-21T13:47:21.737Z,40.76
2023-01-21T13:48:53.749Z,39.37
2023-01-21T13:50:26.548Z,37.73
2023-01-21T13:51:58.678Z,35.32
2023-01-21T13:53:30.626Z,36.71
2023-01-21T13:55:02.181Z,36.86
2023-01-21T13:56:39.432Z,40.61
2023-01-21T13:58:11.278Z,39.43
2023-01-21T13:59:43.548Z,40.49
2023-01-21T14:01:15.223Z,41.70
2023-01-21T14:02:46.904Z,37.90
2023-01-21T14:06:56.772Z,39.99
2023-01-21T14:08:28.547Z,39.63
2023-01-21T14:10:00.518Z,36.82
2023-01-21T14:11:32.961Z,38.80
2023-01-21T14:13:04.992Z,41.08
2023-01-21T14:14:36.799Z,43.49
2023-01-21T14:16:08.871Z,42.37
2023-01-21T14:17:40.779Z,44.97
2023-01-21T14:19:12.288Z,42.39
2023-01-21T14:20:44.121Z,36.88
2023-01-21T14:22:15.780Z,40.02
2023-01-21T14:23:49.287Z,36.70
2023-01-21T14:27:22.193Z,35.94
2023-01-21T14:28:53.982Z,37.16
2023-01-21T14:30:30.879Z,35.84
2023-01-21T14:32:03.036Z,35.73
2023-01-21T14:33:34.586Z,34.95
2023-01-21T14:35:11.449Z,33.13
2023-01-21T14:36:43.070Z,29.52
2023-01-21T14:38:20.061Z,26.44
2023-01-21T14:39:51.872Z,28.56
2023-01-21T14:41:23.974Z,30.35
2023-01-21T14:42:55.664Z,30.23
2023-01-21T14:44:27.292Z,30.38
2023-01-21T14:45:59.201Z,28.65
2023-01-21T14:47:30.990Z,31.23
2023-01-21T14:49:02.672Z,25.77
2023-01-21T14:50:33.920Z,26.74
2023-01-21T14:52:05.565Z,26.00
2023-01-21T14:53:42.559Z,27.87
2023-01-21T14:55:32.809Z,28.94
2023-01-21T14:57:18.204Z,30.09
2023-01-21T14:58:50.269Z,24.44
2023-01-21T15:00:26.576Z,24.02
2023-01-21T15:02:00.440Z,26.45
2023-01-21T15:03:31.961Z,27.84
2023-01-21T15:05:03.367Z,29.07
2023-01-21T15:06:34.778Z,20.92
2023-01-21T15:08:06.182Z,21.21
2023-01-21T15:09:37.550Z,29.19
2023-01-21T15:11:08.988Z,30.87
2023-01-21T15:12:40.200Z,32.84
2023-01-21T15:14:11.859Z,25.93
2023-01-21T15:15:43.598Z,24.21
2023-01-21T15:17:14.768Z,26.29
2023-01-21T15:19:14.669Z,25.60
2023-01-21T15:20:46.488Z,23.15
2023-01-21T15:22:18.142Z,20.75
2023-01-21T15:23:50.210Z,19.43
2023-01-21T15:25:22.005Z,23.89
2023-01-21T15:26:53.384Z,22.89
2023-01-21T15:28:25.158Z,21.31
2023-01-21T15:29:56.873Z,23.63
2023-01-21T15:31:28.503Z,23.75
2023-01-21T15:33:09.919Z,22.06
2023-01-21T15:34:41.274Z,23.79
2023-01-21T15:36:12.534Z,22.12
2023-01-21T15:37:43.881Z,24.68
2023-01-21T15:39:15.264Z,25.08
2023-01-21T15:40:46.570Z,23.49
2023-01-21T15:42:17.753Z,23.27
2023-01-21T15:43:49.070Z,21.42
2023-01-21T15:45:20.588Z,18.31
2023-01-21T15:46:52.043Z,21.09
2023-01-21T15:48:33.092Z,17.95
2023-01-21T15:50:11.581Z,19.28
2023-01-21T15:51:42.964Z,20.14
2023-01-21T15:53:14.261Z,18.90
2023-01-21T15:54:45.572Z,18.30
2023-01-21T15:56:16.960Z,22.88
2023-01-21T15:57:48.246Z,19.14
2023-01-21T15:59:19.449Z,18.46
2023-01-21T16:00:50.654Z,20.06
2023-01-21T16:02:21.894Z,19.23
2023-01-21T16:03:53.224Z,12.45
2023-01-21T16:07:39.715Z,17.89
2023-01-21T16:09:18.891Z,17.44
2023-01-21T16:10:50.131Z,17.07
2023-01-21T16:12:21.381Z,14.52
2023-01-21T16:13:53.166Z,15.74
2023-01-21T16:15:24.727Z,12.54
2023-01-21T16:16:56.296Z,14.83
2023-01-21T16:18:27.656Z,15.70
2023-01-21T16:19:58.787Z,12.83
2023-01-21T16:21:30.031Z,14.86
2023-01-21T16:23:01.524Z,15.27
2023-01-21T16:24:33.002Z,13.85
2023-01-21T16:26:04.284Z,15.08
2023-01-21T16:27:36.253Z,16.96
2023-01-21T16:29:07.577Z,17.09
2023-01-21T16:30:39.325Z,17.91
2023-01-21T16:32:10.747Z,16.92
2023-01-21T16:33:42.629Z,17.07
2023-01-21T16:35:14.050Z,16.83
2023-01-21T16:36:45.606Z,14.92
2023-01-21T16:38:16.869Z,18.71
2023-01-21T16:39:48.607Z,19.52
2023-01-21T16:41:20.865Z,20.81
2023-01-21T16:42:52.168Z,19.71
2023-01-21T16:44:23.357Z,20.37
2023-01-21T16:45:54.598Z,17.62
2023-01-21T16:47:25.923Z,18.99
2023-01-21T16:49:02.195Z,17.86
2023-01-21T16:50:43.605Z,20.53
2023-01-21T16:52:14.916Z,18.99
2023-01-21T16:53:46.210Z,14.36
2023-01-21T16:55:17.888Z,22.16
2023-01-21T16:56:49.475Z,23.74
2023-01-21T16:58:20.768Z,22.58
2023-01-21T16:59:52.832Z,31.29
2023-01-21T17:01:29.294Z,28.12
2023-01-21T17:03:00.941Z,24.71
2023-01-21T17:04:32.324Z,21.96
2023-01-21T17:06:03.600Z,24.23
2023-01-21T17:07:35.088Z,25.82
2023-01-21T17:09:06.685Z,25.05
2023-01-21T17:10:38.207Z,23.59
2023-01-21T17:12:09.716Z,26.43
2023-01-21T17:13:41.034Z,27.54
2023-01-21T17:15:12.573Z,27.60
2023-01-21T17:16:44.327Z,27.90
2023-01-21T17:18:16.624Z,27.24
2023-01-21T17:19:49.838Z,29.42
2023-01-21T17:21:21.031Z,22.84
2023-01-21T17:22:52.530Z,25.57
2023-01-21T17:29:09.386Z,28.38
2023-01-21T17:30:40.841Z,28.05
2023-01-21T17:32:12.478Z,23.66
2023-01-21T17:33:44.086Z,27.88
2023-01-21T17:35:15.546Z,24.63
2023-01-21T17:36:46.916Z,30.01
2023-01-21T17:38:18.080Z,28.50
2023-01-21T17:39:49.391Z,31.70
2023-01-21T17:41:20.819Z,34.14
2023-01-21T17:42:52.175Z,36.13
2023-01-21T17:44:23.847Z,32.70
2023-01-21T17:45:55.509Z,31.53
2023-01-21T17:47:26.905Z,35.52
2023-01-21T17:49:34.800Z,35.15
2023-01-21T17:51:09.878Z,34.24
2023-01-21T17:52:41.458Z,33.87
2023-01-21T17:54:24.426Z,28.73
2023-01-21T17:55:56.527Z,29.13
2023-01-21T17:57:28.050Z,31.42
2023-01-21T17:58:59.343Z,29.70
2023-01-21T18:00:40.790Z,27.50
2023-01-21T18:02:22.183Z,24.64
2023-01-21T18:03:53.654Z,30.24
2023-01-21T18:05:25.158Z,33.98
2023-01-21T18:06:56.325Z,33.01
2023-01-21T18:08:27.717Z,35.60
2023-01-21T18:09:59.085Z,39.95
2023-01-21T18:11:30.359Z,39.66
2023-01-21T18:13:03.069Z,37.13
2023-01-21T18:14:39.473Z,38.12
2023-01-21T18:16:11.254Z,39.40
2023-01-21T18:17:42.663Z,33.46
2023-01-21T18:19:14.020Z,33.81
2023-01-21T18:20:45.605Z,38.88
2023-01-21T18:22:16.978Z,36.91
2023-01-21T18:23:48.653Z,34.18
2023-01-21T18:25:36.396Z,23.64
2023-01-21T18:27:07.700Z,27.87
2023-01-21T18:28:39.201Z,41.82
2023-01-21T18:30:10.460Z,33.37
2023-01-21T18:31:41.888Z,38.67
2023-01-21T18:33:13.741Z,39.72
2023-01-21T18:34:45.260Z,37.59
2023-01-21T18:36:16.554Z,28.89
2023-01-21T18:37:49.291Z,35.97
2023-01-21T18:39:20.638Z,29.48
2023-01-21T18:40:53.943Z,26.66
2023-01-21T18:42:25.492Z,36.16
2023-01-21T18:44:36.401Z,40.02
2023-01-21T18:46:12.772Z,30.82
2023-01-21T18:47:43.928Z,33.10
2023-01-21T18:49:15.329Z,35.48
2023-01-21T18:50:47.135Z,31.38
2023-01-21T18:52:18.999Z,28.12
2023-01-21T18:54:00.392Z,27.03
2023-01-21T18:55:31.680Z,40.26
2023-01-21T18:57:02.922Z,40.86
2023-01-21T18:58:34.238Z,32.54
2023-01-21T19:00:05.786Z,35.48
2023-01-21T19:01:42.487Z,47.24
2023-01-21T19:03:14.077Z,34.27
2023-01-21T19:04:45.593Z,43.08
2023-01-21T19:06:17.097Z,41.77
2023-01-21T19:07:48.367Z,45.84
2023-01-21T19:09:19.779Z,44.97
2023-01-21T19:10:50.952Z,42.24
2023-01-21T19:12:22.180Z,37.04
2023-01-21T19:13:53.917Z,32.05
2023-01-21T19:15:30.375Z,40.63
2023-01-21T19:17:11.878Z,44.40
2023-01-21T19:18:43.259Z,31.05
2023-01-21T19:20:14.877Z,43.08
2023-01-21T19:21:46.148Z,37.68
2023-01-21T19:23:17.504Z,46.39
2023-01-21T19:24:48.692Z,45.05
2023-01-21T19:26:20.219Z,50.79
2023-01-21T19:27:51.395Z,42.70
2023-01-21T19:29:27.570Z,42.88
2023-01-21T19:30:58.987Z,42.80
2023-01-21T19:32:43.311Z,42.49
2023-01-21T19:34:14.926Z,52.79
2023-01-21T19:35:46.615Z,33.94
2023-01-21T19:37:18.294Z,44.14
2023-01-21T19:38:49.512Z,45.25
2023-01-21T19:40:20.930Z,47.48
2023-01-21T19:42:07.029Z,43.04
2023-01-21T19:43:39.300Z,32.71
2023-01-21T19:45:10.757Z,33.67
2023-01-21T19:46:42.071Z,38.15
2023-01-21T19:48:13.423Z,43.77
2023-01-21T19:49:44.717Z,41.53
2023-01-21T19:51:56.777Z,39.15
2023-01-21T19:53:28.591Z,48.35
2023-01-21T19:55:00.587Z,39.21
2023-01-21T19:56:32.371Z,41.01
2023-01-21T19:58:04.157Z,40.44
2023-01-21T19:59:36.576Z,46.36